Terminal Aerodrome Forecast
Issued by NWS

Home | Current Version | Previous Version | Text Only | Print | Product List | Glossary On
Versions: 1 2 3 4 5 6 7 8 9 10 11 12 13 14 15 16 17 18 19 20
000
FTUS41 KCAR 270238 AAB
TAFBHB
TAF AMD
KBHB 270238Z 2703/2724 VRB03KT 1 1/2SM -RA BR SCT025 OVC035
     FM270400 36004KT 2SM -RASN BR OVC025
     FM270700 35004KT 6SM -SN SCT010 OVC020
     FM271200 35005KT P6SM SCT025 OVC040
      AMD LTD TO CLD VIS AND WIND=

USA.gov is the U.S. government's official web portal to all federal, state and local government web resources and services.